• Join FlightAware (Why Join?)
  • Login
  • US Flag 
11:55AM EDT


 

Airport Tracker/Info


-or-


 

Live Flight TrackerFlight Track Log ✈ UAL6044 ✈ 25-May-2013 ✈ KBHM - KORD

Flight Track Log - Related Links

Times and Time Zones

All times are in EDT time to prevent confusion due to time zone crossing. See the UAL6044 flight status page for this flight to view local times or setup timezone preferences in your user account.

Time Position Orientation Groundspeed Altitude Reporting Facility
EDT Latitude Longitude Course Direction KTS MPH feet Rate Location/Type
07:11AM 33.5706 -86.7439 59° Northeast 155 178 1,500  Level Atlanta Center
07:12AM 33.6092 -86.6903 49° Northeast 208 239 3,200 1,500 Climbing Atlanta Center
07:12AM 33.6242 -86.6733 43° Northeast 208 239 3,800 1,440 Climbing Atlanta Center
07:13AM 33.6733 -86.6147 45° Northeast 231 266 5,300 1,800 Climbing Atlanta Center
07:14AM 33.7624 -86.4102 53° Northeast  Level FlightAware Approximate
07:14AM 33.7289 -86.5542 42° Northeast 243 280 7,500  Level Atlanta Center
07:15AM 33.8163 -86.3256 51° Northeast  Level FlightAware Approximate
07:15AM 33.7822 -86.4931 44° Northeast 255 293 9,400  Level Atlanta Center
07:16AM 33.8650 -86.2367 59° Northeast  Level FlightAware Approximate
07:16AM 33.8419 -86.4272 42° Northeast 266 306 10,400  Level Atlanta Center
07:17AM 33.9103 -86.3517 43° Northeast 298 343 11,100 1,020 Climbing Atlanta Center
07:18AM 33.9806 -86.2733 43° Northeast 325 374 12,500 1,260 Climbing Atlanta Center
07:19AM 34.0489 -86.1925 44° Northeast 337 388 13,700 1,260 Climbing Atlanta Center
07:20AM 34.1256 -86.1089 42° Northeast 349 402 15,100 1,200 Climbing Atlanta Center
07:21AM 34.1978 -86.0281 43° Northeast 349 402 16,200 1,020 Climbing Atlanta Center
07:22AM 34.2722 -85.9442 43° Northeast 354 407 17,200 780 Climbing Atlanta Center
07:23AM 34.3464 -85.8603 43° Northeast 354 407 17,800 780 Climbing Atlanta Center
07:24AM 34.4389 -85.8094 24° Northeast 360 414 18,800 900 Climbing Atlanta Center
07:25AM 34.5336 -85.7558 25° Northeast 360 414 19,700 900 Climbing Atlanta Center
07:26AM 34.6283 -85.6997 26° Northeast 366 421 20,700 960 Climbing Atlanta Center
07:27AM 34.7169 -85.6258 34° Northeast 373 429 21,700 960 Climbing Atlanta Center
07:28AM 34.7767 -85.5131 57° Northeast 373 429 22,700 900 Climbing Atlanta Center
07:29AM 34.8367 -85.3978 58° Northeast 389 448 23,600 900 Climbing Atlanta Center
07:30AM 34.8942 -85.2822 59° Northeast 394 453 24,600 960 Climbing Atlanta Center
07:31AM 34.9597 -85.1742 53° Northeast 394 453 25,600 960 Climbing Atlanta Center
07:32AM 35.0561 -85.1322 20° North 364 419 26,600 900 Climbing Atlanta Center
07:33AM 35.1608 -85.1058 12° North 359 413 27,500 660 Climbing Atlanta Center
07:34AM 35.2611 -85.0792 12° North 364 419 28,000 240 Climbing Atlanta Center
07:35AM 35.3700 -85.0500 12° North 378 435 28,000  Level Atlanta Center
07:36AM 35.4828 -85.0233 11° North 391 450 28,000  Level Atlanta Center
07:37AM 35.5936 -84.9939 12° North 404 465 28,000  Level Atlanta Center
07:39AM 35.8161 -84.9364 12° North 428 493 28,000  Level Indianapolis Center
07:40AM 35.9364 -84.9058 12° North 434 499 28,000  Level Indianapolis Center
07:41AM 36.0550 -84.8753 12° North 438 504 28,000  Level Indianapolis Center
07:42AM 36.1736 -84.8444 12° North 434 499 28,000  Level Indianapolis Center
07:43AM 36.2928 -84.8139 12° North 436 502 28,000  Level Indianapolis Center
07:44AM 36.4122 -84.7822 12° North 438 504 28,000  Level Indianapolis Center
07:45AM 36.5297 -84.7489 13° North 436 502 28,000  Level Indianapolis Center
07:46AM 36.6472 -84.7125 14° North 433 498 28,000  Level Indianapolis Center
07:47AM 36.7656 -84.6783 13° North 436 502 28,000  Level Indianapolis Center
07:48AM 36.8811 -84.6447 13° North 429 494 28,000  Level Indianapolis Center
07:49AM 36.9981 -84.6106 13° North 430 495 28,000  Level Indianapolis Center
07:50AM 37.1219 -84.5719 14° North 426 490 28,000  Level Indianapolis Center
07:51AM 37.2372 -84.5392 13° North 424 488 28,000  Level Indianapolis Center
07:52AM 37.3517 -84.5047 13° North 421 484 28,000  Level Indianapolis Center
07:53AM 37.4664 -84.4700 14° North 421 484 28,000  Level Indianapolis Center
07:54AM 37.5814 -84.4336 14° North 424 488 28,000  Level Indianapolis Center
07:55AM 37.6956 -84.4006 13° North 420 483 28,000  Level Indianapolis Center
07:56AM 37.8181 -84.4428 345° North 393 452 28,000  Level Indianapolis Center
07:57AM 37.8772 -84.5608 302° West 397 457 28,000  Level Indianapolis Center
07:58AM 37.9194 -84.6906 292° West 399 459 28,000  Level Indianapolis Center
07:59AM 37.9611 -84.8214 292° West 400 460 28,000  Level Indianapolis Center
08:00AM 38.0103 -84.9469 296° West 399 459 28,000  Level Indianapolis Center
08:01AM 38.1181 -84.9831 345° North 406 467 28,000  Level Indianapolis Center
08:02AM 38.2281 -85.0117 348° North 403 464 28,000  Level Indianapolis Center
08:03AM 38.3369 -85.0442 347° North 402 463 28,000  Level Indianapolis Center
08:04AM 38.4467 -85.0742 348° North 402 463 28,000  Level Indianapolis Center
08:05AM 38.5567 -85.1053 348° North 402 463 28,000  Level Indianapolis Center
08:06AM 38.6753 -85.1428 346° North 393 452 28,000  Level Indianapolis Center
08:07AM 38.7658 -85.2153 328° Northwest 385 443 28,000  Level Indianapolis Center
08:08AM 38.8558 -85.2889 328° Northwest 385 443 28,000  Level Indianapolis Center
08:09AM 38.9494 -85.3489 334° Northwest 376 433 28,000  Level Indianapolis Center
08:10AM 39.0550 -85.3708 351° North 385 443 28,000  Level Indianapolis Center
08:11AM 39.1592 -85.3933 350° North 381 438 28,000  Level Indianapolis Center
08:12AM 39.2647 -85.4147 351° North 382 440 28,000  Level Indianapolis Center
08:13AM 39.3703 -85.4378 350° North 386 444 28,000  Level Indianapolis Center
08:14AM 39.4764 -85.4600 351° North 388 447 28,000 -60 Level Indianapolis Center
08:15AM 39.5836 -85.4828 351° North 390 449 27,900 -840 Descending Indianapolis Center
08:16AM 39.7131 -85.5100 351° North 394 453 26,300 -960 Descending Indianapolis Center
08:18AM 39.8161 -85.5319 351° North 383 441 26,000 -180 Descending Indianapolis Center
08:19AM 39.9189 -85.5547 350° North 377 434 26,000  Level Indianapolis Center
08:20AM 40.0256 -85.5778 351° North 387 445 26,000  Level Indianapolis Center
08:21AM 40.1325 -85.5997 351° North 390 449 26,000  Level Indianapolis Center
08:22AM 40.2417 -85.6239 350° North 397 457 26,000 -120 Level Indianapolis Center
08:22AM 40.3067 -85.6406 349° North 402 463 25,800 -1,200 Descending Chicago Center
08:23AM 40.4014 -85.7531 318° Northwest 384 442 24,000 -900 Descending Chicago Center
08:24AM 40.4694 -85.8542 312° West 373 429 24,000  Level Chicago Center
08:25AM 40.5392 -85.9556 312° West 375 432 24,000 -60 Level Chicago Center
08:26AM 40.6100 -86.0608 312° West 384 442 23,900 -960 Descending Chicago Center
08:27AM 40.6806 -86.1633 312° West 380 437 22,100 -1,440 Descending Chicago Center
08:28AM 40.7419 -86.2575 311° West 371 427 21,000 -600 Descending Chicago Center
08:29AM 40.8239 -86.3767 312° West 366 421 21,000  Level Chicago Center
08:30AM 40.8906 -86.4778 311° West 364 419 21,000  Level Chicago Center
08:31AM 40.9589 -86.5803 311° West 369 425 21,000 -240 Level Chicago Center
08:32AM 41.0256 -86.6803 311° West 365 420 20,600 -960 Descending Chicago Center
08:33AM 41.0931 -86.7767 313° West 358 412 19,100 -1,320 Descending Chicago Center
08:34AM 41.1544 -86.8747 310° West 349 402 17,900 -1,680 Descending Chicago Center
08:35AM 41.2194 -86.9689 313° West 349 402 15,700 -2,340 Descending Chicago Center
08:36AM 41.2781 -87.0611 310° West 334 384 13,200 -1,980 Descending Chicago Center
08:37AM 41.3372 -87.1522 311° West 330 380 11,700 -1,140 Descending Chicago Center
08:39AM 41.3992 -87.2361 315° West 322 371 11,000 -600 Descending Chicago Center
08:40AM 41.4828 -87.3336 319° Northwest 333 383 10,500 -540 Descending Chicago Center
08:41AM 41.5514 -87.4117 320° Northwest 329 379 10,000 -300 Descending Chicago Center
08:42AM 41.6186 -87.4858 320° Northwest 320 368 10,000  Level Chicago Center
08:43AM 41.6858 -87.5614 320° Northwest 318 366 10,000  Level Chicago Center
08:44AM 41.7539 -87.6386 320° Northwest 322 371 10,000  Level Chicago Center
08:45AM 41.8211 -87.7144 320° Northwest 321 369 10,000 -60 Level Chicago Center
08:46AM 41.8761 -87.7958 312° West 300 345 9,900 -1,140 Descending Chicago Center
08:47AM 41.8897 -87.9056 279° West 256 295 7,800 -1,740 Descending Chicago Center
08:47AM 41.9000 -87.9667 283° West 257 296 7,000 -960 Descending Chicago TRACON
08:48AM 41.8833 -88.0500 255° West 255 293 6,300 -1,080 Descending Chicago TRACON
08:49AM 41.8833 -88.1500 270° West 260 299 5,000 -1,200 Descending Chicago TRACON
08:50AM 41.9097 -88.1667 335° Northwest 256 295 4,600 -900 Descending Chicago Center
08:51AM 41.9617 -88.1642 North 203 234 3,700 -840 Descending Chicago Center
08:52AM 41.9678 -88.0953 83° East 195 224 3,000 -720 Descending Chicago Center
08:52AM 41.9667 -88.0667 93° East 183 211 2,800 -720 Descending Chicago TRACON